sensor_id;sensor_type;location;lat;lon;timestamp;temperature;humidity
9043;DHT22;4556;49.150;8.808;2022-11-21T00:01:18;6.10;99.90
9043;DHT22;4556;49.150;8.808;2022-11-21T00:03:46;6.10;99.90
9043;DHT22;4556;49.150;8.808;2022-11-21T00:06:13;7.90;99.90
9043;DHT22;4556;49.150;8.808;2022-11-21T00:08:41;6.30;99.90
9043;DHT22;4556;49.150;8.808;2022-11-21T00:11:09;6.10;99.90
9043;DHT22;4556;49.150;8.808;2022-11-21T00:13:36;6.70;99.90
9043;DHT22;4556;49.150;8.808;2022-11-21T00:16:04;7.80;99.90
9043;DHT22;4556;49.150;8.808;2022-11-21T00:18:32;6.10;99.90
9043;DHT22;4556;49.150;8.808;2022-11-21T00:21:03;6.00;99.90
9043;DHT22;4556;49.150;8.808;2022-11-21T00:23:30;6.10;99.90
9043;DHT22;4556;49.150;8.808;2022-11-21T00:26:03;6.00;99.90
9043;DHT22;4556;49.150;8.808;2022-11-21T00:28:30;7.80;99.90
9043;DHT22;4556;49.150;8.808;2022-11-21T00:30:57;6.00;99.90
9043;DHT22;4556;49.150;8.808;2022-11-21T00:33:24;6.30;99.90
9043;DHT22;4556;49.150;8.808;2022-11-21T00:35:51;6.70;99.90
9043;DHT22;4556;49.150;8.808;2022-11-21T00:38:18;6.30;99.90
9043;DHT22;4556;49.150;8.808;2022-11-21T00:40:45;6.00;99.90
9043;DHT22;4556;49.150;8.808;2022-11-21T00:43:13;7.30;99.90
9043;DHT22;4556;49.150;8.808;2022-11-21T00:45:40;9.00;99.90
9043;DHT22;4556;49.150;8.808;2022-11-21T00:48:07;5.90;99.90
9043;DHT22;4556;49.150;8.808;2022-11-21T00:50:34;5.90;99.90
9043;DHT22;4556;49.150;8.808;2022-11-21T00:53:01;5.90;99.90
9043;DHT22;4556;49.150;8.808;2022-11-21T00:55:28;5.90;99.90
9043;DHT22;4556;49.150;8.808;2022-11-21T00:57:55;7.70;99.90
9043;DHT22;4556;49.150;8.808;2022-11-21T01:00:23;7.60;99.90
9043;DHT22;4556;49.150;8.808;2022-11-21T01:02:50;5.90;99.90
9043;DHT22;4556;49.150;8.808;2022-11-21T01:05:17;8.80;99.90
9043;DHT22;4556;49.150;8.808;2022-11-21T01:07:44;7.40;99.90
9043;DHT22;4556;49.150;8.808;2022-11-21T01:10:13;8.00;99.90
9043;DHT22;4556;49.150;8.808;2022-11-21T01:12:40;5.80;99.90
9043;DHT22;4556;49.150;8.808;2022-11-21T01:15:08;7.60;99.90
9043;DHT22;4556;49.150;8.808;2022-11-21T01:17:37;5.80;99.90
9043;DHT22;4556;49.150;8.808;2022-11-21T01:20:05;6.10;99.90
9043;DHT22;4556;49.150;8.808;2022-11-21T01:22:32;5.80;99.90
9043;DHT22;4556;49.150;8.808;2022-11-21T01:24:59;5.90;99.90
9043;DHT22;4556;49.150;8.808;2022-11-21T01:27:26;5.10;99.90
9043;DHT22;4556;49.150;8.808;2022-11-21T01:30:04;5.80;99.90
9043;DHT22;4556;49.150;8.808;2022-11-21T01:32:32;5.80;99.90
9043;DHT22;4556;49.150;8.808;2022-11-21T01:35:00;6.40;99.90
9043;DHT22;4556;49.150;8.808;2022-11-21T01:37:27;5.80;99.90
9043;DHT22;4556;49.150;8.808;2022-11-21T01:39:54;5.90;99.90
9043;DHT22;4556;49.150;8.808;2022-11-21T01:42:21;6.00;99.90
9043;DHT22;4556;49.150;8.808;2022-11-21T01:44:49;5.90;99.90
9043;DHT22;4556;49.150;8.808;2022-11-21T01:47:18;6.60;99.90
9043;DHT22;4556;49.150;8.808;2022-11-21T01:49:47;7.70;99.90
9043;DHT22;4556;49.150;8.808;2022-11-21T01:52:19;7.40;99.90
9043;DHT22;4556;49.150;8.808;2022-11-21T01:54:51;6.70;99.90
9043;DHT22;4556;49.150;8.808;2022-11-21T01:57:22;8.00;99.90
9043;DHT22;4556;49.150;8.808;2022-11-21T01:59:53;5.90;99.90
9043;DHT22;4556;49.150;8.808;2022-11-21T02:02:23;7.60;99.90
9043;DHT22;4556;49.150;8.808;2022-11-21T02:04:51;5.90;99.90
9043;DHT22;4556;49.150;8.808;2022-11-21T02:07:21;5.80;99.90
9043;DHT22;4556;49.150;8.808;2022-11-21T02:09:52;5.80;99.90
9043;DHT22;4556;49.150;8.808;2022-11-21T02:12:24;5.80;99.90
9043;DHT22;4556;49.150;8.808;2022-11-21T02:14:52;5.80;99.90
9043;DHT22;4556;49.150;8.808;2022-11-21T02:17:20;5.80;99.90
9043;DHT22;4556;49.150;8.808;2022-11-21T02:19:52;5.80;99.90
9043;DHT22;4556;49.150;8.808;2022-11-21T02:22:26;8.30;99.90
9043;DHT22;4556;49.150;8.808;2022-11-21T02:25:00;5.80;99.90
9043;DHT22;4556;49.150;8.808;2022-11-21T02:27:33;5.90;99.90
9043;DHT22;4556;49.150;8.808;2022-11-21T02:30:00;5.90;99.90
9043;DHT22;4556;49.150;8.808;2022-11-21T02:32:32;7.70;99.90
9043;DHT22;4556;49.150;8.808;2022-11-21T02:34:59;5.90;99.90
9043;DHT22;4556;49.150;8.808;2022-11-21T02:37:27;5.90;99.90
9043;DHT22;4556;49.150;8.808;2022-11-21T02:39:55;6.10;99.90
9043;DHT22;4556;49.150;8.808;2022-11-21T02:42:29;5.90;99.90
9043;DHT22;4556;49.150;8.808;2022-11-21T02:45:00;5.80;99.90
9043;DHT22;4556;49.150;8.808;2022-11-21T02:47:31;6.80;99.90
9043;DHT22;4556;49.150;8.808;2022-11-21T02:50:03;5.90;99.90
9043;DHT22;4556;49.150;8.808;2022-11-21T02:52:32;5.90;99.90
9043;DHT22;4556;49.150;8.808;2022-11-21T02:54:59;5.90;99.90
9043;DHT22;4556;49.150;8.808;2022-11-21T02:57:28;5.80;99.90
9043;DHT22;4556;49.150;8.808;2022-11-21T02:59:55;8.60;99.90
9043;DHT22;4556;49.150;8.808;2022-11-21T03:02:22;8.00;99.90
9043;DHT22;4556;49.150;8.808;2022-11-21T03:04:48;7.90;99.90
9043;DHT22;4556;49.150;8.808;2022-11-21T03:07:15;5.90;99.90
9043;DHT22;4556;49.150;8.808;2022-11-21T03:09:42;6.70;99.90
9043;DHT22;4556;49.150;8.808;2022-11-21T03:12:09;7.70;99.90
9043;DHT22;4556;49.150;8.808;2022-11-21T03:14:38;5.90;99.90
9043;DHT22;4556;49.150;8.808;2022-11-21T03:17:05;5.80;99.90
9043;DHT22;4556;49.150;8.808;2022-11-21T03:19:32;5.90;99.90
9043;DHT22;4556;49.150;8.808;2022-11-21T03:21:59;5.90;99.90
9043;DHT22;4556;49.150;8.808;2022-11-21T03:24:26;5.90;99.90
9043;DHT22;4556;49.150;8.808;2022-11-21T03:26:53;6.50;99.90
9043;DHT22;4556;49.150;8.808;2022-11-21T03:29:22;5.90;99.90
9043;DHT22;4556;49.150;8.808;2022-11-21T03:31:50;5.80;99.90
9043;DHT22;4556;49.150;8.808;2022-11-21T03:34:17;6.50;99.90
9043;DHT22;4556;49.150;8.808;2022-11-21T03:36:44;7.70;99.90
9043;DHT22;4556;49.150;8.808;2022-11-21T03:39:11;6.10;99.90
9043;DHT22;4556;49.150;8.808;2022-11-21T03:41:38;5.90;99.90
9043;DHT22;4556;49.150;8.808;2022-11-21T03:44:06;5.90;99.90
9043;DHT22;4556;49.150;8.808;2022-11-21T03:46:35;6.00;99.90
9043;DHT22;4556;49.150;8.808;2022-11-21T03:49:04;6.00;99.90
9043;DHT22;4556;49.150;8.808;2022-11-21T03:51:32;6.00;99.90
9043;DHT22;4556;49.150;8.808;2022-11-21T03:53:59;6.00;99.90
9043;DHT22;4556;49.150;8.808;2022-11-21T03:56:26;6.00;99.90
9043;DHT22;4556;49.150;8.808;2022-11-21T03:58:53;6.10;99.90
9043;DHT22;4556;49.150;8.808;2022-11-21T04:01:20;7.30;99.90
9043;DHT22;4556;49.150;8.808;2022-11-21T04:03:47;5.90;99.90
9043;DHT22;4556;49.150;8.808;2022-11-21T04:06:18;6.00;99.90
9043;DHT22;4556;49.150;8.808;2022-11-21T04:08:46;6.00;99.90
9043;DHT22;4556;49.150;8.808;2022-11-21T04:11:13;6.90;99.90
9043;DHT22;4556;49.150;8.808;2022-11-21T04:13:40;6.00;99.90
9043;DHT22;4556;49.150;8.808;2022-11-21T04:16:07;6.70;99.90
9043;DHT22;4556;49.150;8.808;2022-11-21T04:18:35;6.00;99.90
9043;DHT22;4556;49.150;8.808;2022-11-21T04:21:03;6.00;99.90
9043;DHT22;4556;49.150;8.808;2022-11-21T04:23:32;6.00;99.90
9043;DHT22;4556;49.150;8.808;2022-11-21T04:25:59;6.50;99.90
9043;DHT22;4556;49.150;8.808;2022-11-21T04:28:26;6.70;99.90
9043;DHT22;4556;49.150;8.808;2022-11-21T04:30:53;6.00;99.90
9043;DHT22;4556;49.150;8.808;2022-11-21T04:33:20;7.60;99.90
9043;DHT22;4556;49.150;8.808;2022-11-21T04:35:47;6.00;99.90
9043;DHT22;4556;49.150;8.808;2022-11-21T04:38:14;6.00;99.90
9043;DHT22;4556;49.150;8.808;2022-11-21T04:40:43;6.00;99.90
9043;DHT22;4556;49.150;8.808;2022-11-21T04:43:10;7.00;99.90
9043;DHT22;4556;49.150;8.808;2022-11-21T04:45:37;6.10;99.90
9043;DHT22;4556;49.150;8.808;2022-11-21T04:48:05;6.10;99.90
9043;DHT22;4556;49.150;8.808;2022-11-21T04:50:32;6.10;99.90
9043;DHT22;4556;49.150;8.808;2022-11-21T04:52:59;7.00;99.90
9043;DHT22;4556;49.150;8.808;2022-11-21T04:55:28;6.10;99.90
9043;DHT22;4556;49.150;8.808;2022-11-21T04:57:58;6.10;99.90
9043;DHT22;4556;49.150;8.808;2022-11-21T05:00:25;6.70;99.90
9043;DHT22;4556;49.150;8.808;2022-11-21T05:02:52;6.10;99.90
9043;DHT22;4556;49.150;8.808;2022-11-21T05:05:19;6.00;99.90
9043;DHT22;4556;49.150;8.808;2022-11-21T05:07:46;7.20;99.90
9043;DHT22;4556;49.150;8.808;2022-11-21T05:10:13;6.70;99.90
9043;DHT22;4556;49.150;8.808;2022-11-21T05:12:40;7.00;99.90
9043;DHT22;4556;49.150;8.808;2022-11-21T05:15:26;8.00;99.90
9043;DHT22;4556;49.150;8.808;2022-11-21T05:17:53;6.90;99.90
9043;DHT22;4556;49.150;8.808;2022-11-21T05:20:20;6.10;99.90
9043;DHT22;4556;49.150;8.808;2022-11-21T05:22:50;6.20;99.90
9043;DHT22;4556;49.150;8.808;2022-11-21T05:25:17;6.80;99.90
9043;DHT22;4556;49.150;8.808;2022-11-21T05:27:44;6.00;99.90
9043;DHT22;4556;49.150;8.808;2022-11-21T05:30:12;7.50;99.90
9043;DHT22;4556;49.150;8.808;2022-11-21T05:32:42;6.10;99.90
9043;DHT22;4556;49.150;8.808;2022-11-21T05:35:09;6.50;99.90
9043;DHT22;4556;49.150;8.808;2022-11-21T05:37:36;6.10;99.90
9043;DHT22;4556;49.150;8.808;2022-11-21T05:40:04;6.20;99.90
9043;DHT22;4556;49.150;8.808;2022-11-21T05:42:31;6.10;99.90
9043;DHT22;4556;49.150;8.808;2022-11-21T05:45:16;6.00;99.90
9043;DHT22;4556;49.150;8.808;2022-11-21T05:47:44;6.00;99.90
9043;DHT22;4556;49.150;8.808;2022-11-21T05:50:10;6.00;99.90
9043;DHT22;4556;49.150;8.808;2022-11-21T05:52:37;8.10;99.90
9043;DHT22;4556;49.150;8.808;2022-11-21T05:55:05;7.70;99.90
9043;DHT22;4556;49.150;8.808;2022-11-21T05:57:32;6.00;99.90
9043;DHT22;4556;49.150;8.808;2022-11-21T05:59:59;6.90;99.90
9043;DHT22;4556;49.150;8.808;2022-11-21T06:02:26;6.10;99.90
9043;DHT22;4556;49.150;8.808;2022-11-21T06:05:11;6.00;99.90
9043;DHT22;4556;49.150;8.808;2022-11-21T06:07:38;6.50;99.90
9043;DHT22;4556;49.150;8.808;2022-11-21T06:10:06;6.00;99.90
9043;DHT22;4556;49.150;8.808;2022-11-21T06:12:33;6.00;99.90
9043;DHT22;4556;49.150;8.808;2022-11-21T06:14:59;6.00;99.90
9043;DHT22;4556;49.150;8.808;2022-11-21T06:17:26;6.00;99.90
9043;DHT22;4556;49.150;8.808;2022-11-21T06:19:53;6.00;99.90
9043;DHT22;4556;49.150;8.808;2022-11-21T06:22:22;6.00;99.90
9043;DHT22;4556;49.150;8.808;2022-11-21T06:24:49;6.00;99.90
9043;DHT22;4556;49.150;8.808;2022-11-21T06:27:16;6.00;99.90
9043;DHT22;4556;49.150;8.808;2022-11-21T06:29:42;6.00;99.90
9043;DHT22;4556;49.150;8.808;2022-11-21T06:32:09;5.90;99.90
9043;DHT22;4556;49.150;8.808;2022-11-21T06:34:36;7.40;99.90
9043;DHT22;4556;49.150;8.808;2022-11-21T06:37:03;5.90;99.90
9043;DHT22;4556;49.150;8.808;2022-11-21T06:39:32;6.00;99.90
9043;DHT22;4556;49.150;8.808;2022-11-21T06:42:00;7.90;99.90
9043;DHT22;4556;49.150;8.808;2022-11-21T06:44:27;6.00;99.90
9043;DHT22;4556;49.150;8.808;2022-11-21T06:46:54;6.20;99.90
9043;DHT22;4556;49.150;8.808;2022-11-21T06:49:21;6.10;99.90
9043;DHT22;4556;49.150;8.808;2022-11-21T06:51:48;6.50;99.90
9043;DHT22;4556;49.150;8.808;2022-11-21T06:54:15;6.00;99.90
9043;DHT22;4556;49.150;8.808;2022-11-21T06:56:44;5.80;99.90
9043;DHT22;4556;49.150;8.808;2022-11-21T06:59:12;6.00;99.90
9043;DHT22;4556;49.150;8.808;2022-11-21T07:01:39;6.00;99.90
9043;DHT22;4556;49.150;8.808;2022-11-21T07:04:06;6.00;99.90
9043;DHT22;4556;49.150;8.808;2022-11-21T07:06:33;6.00;99.90
9043;DHT22;4556;49.150;8.808;2022-11-21T07:09:00;7.80;99.90
9043;DHT22;4556;49.150;8.808;2022-11-21T07:11:29;7.10;99.90
9043;DHT22;4556;49.150;8.808;2022-11-21T07:13:58;7.30;99.90
9043;DHT22;4556;49.150;8.808;2022-11-21T07:16:24;6.10;99.90
9043;DHT22;4556;49.150;8.808;2022-11-21T07:18:55;6.60;99.90
9043;DHT22;4556;49.150;8.808;2022-11-21T07:21:22;6.10;99.90
9043;DHT22;4556;49.150;8.808;2022-11-21T07:23:49;6.30;99.90
9043;DHT22;4556;49.150;8.808;2022-11-21T07:26:16;8.30;99.90
9043;DHT22;4556;49.150;8.808;2022-11-21T07:28:42;7.50;99.90
9043;DHT22;4556;49.150;8.808;2022-11-21T07:31:11;5.90;99.90
9043;DHT22;4556;49.150;8.808;2022-11-21T07:33:38;7.00;99.90
9043;DHT22;4556;49.150;8.808;2022-11-21T07:36:05;6.40;99.90
9043;DHT22;4556;49.150;8.808;2022-11-21T07:38:33;6.30;99.90
9043;DHT22;4556;49.150;8.808;2022-11-21T07:41:00;5.90;99.90
9043;DHT22;4556;49.150;8.808;2022-11-21T07:43:27;5.90;99.90
9043;DHT22;4556;49.150;8.808;2022-11-21T07:45:55;6.90;99.90
9043;DHT22;4556;49.150;8.808;2022-11-21T07:48:24;5.90;99.90
9043;DHT22;4556;49.150;8.808;2022-11-21T07:50:51;5.90;99.90
9043;DHT22;4556;49.150;8.808;2022-11-21T07:53:18;6.10;99.90
9043;DHT22;4556;49.150;8.808;2022-11-21T07:55:45;6.10;99.90
9043;DHT22;4556;49.150;8.808;2022-11-21T07:58:15;5.90;99.90
9043;DHT22;4556;49.150;8.808;2022-11-21T08:00:42;5.90;99.90
9043;DHT22;4556;49.150;8.808;2022-11-21T08:03:09;6.10;99.90
9043;DHT22;4556;49.150;8.808;2022-11-21T08:05:40;7.40;99.90
9043;DHT22;4556;49.150;8.808;2022-11-21T08:08:07;6.10;99.90
9043;DHT22;4556;49.150;8.808;2022-11-21T08:10:36;6.20;99.90
9043;DHT22;4556;49.150;8.808;2022-11-21T08:13:03;6.20;99.90
9043;DHT22;4556;49.150;8.808;2022-11-21T08:15:30;6.20;99.90
9043;DHT22;4556;49.150;8.808;2022-11-21T08:17:57;6.30;99.90
9043;DHT22;4556;49.150;8.808;2022-11-21T08:20:25;8.00;99.90
9043;DHT22;4556;49.150;8.808;2022-11-21T08:22:53;8.80;99.90
9043;DHT22;4556;49.150;8.808;2022-11-21T08:25:20;6.80;99.90
9043;DHT22;4556;49.150;8.808;2022-11-21T08:27:47;8.40;99.90
9043;DHT22;4556;49.150;8.808;2022-11-21T08:30:14;8.30;99.90
9043;DHT22;4556;49.150;8.808;2022-11-21T08:32:43;6.50;99.90
9043;DHT22;4556;49.150;8.808;2022-11-21T08:35:10;6.60;99.90
9043;DHT22;4556;49.150;8.808;2022-11-21T08:37:36;6.60;99.90
9043;DHT22;4556;49.150;8.808;2022-11-21T08:40:06;8.60;99.90
9043;DHT22;4556;49.150;8.808;2022-11-21T08:42:33;6.70;99.90
9043;DHT22;4556;49.150;8.808;2022-11-21T08:45:03;6.80;99.90
9043;DHT22;4556;49.150;8.808;2022-11-21T08:47:31;6.90;99.90
9043;DHT22;4556;49.150;8.808;2022-11-21T08:49:58;6.90;99.90
9043;DHT22;4556;49.150;8.808;2022-11-21T08:52:25;8.00;99.90
9043;DHT22;4556;49.150;8.808;2022-11-21T08:54:52;7.00;99.90
9043;DHT22;4556;49.150;8.808;2022-11-21T08:57:21;7.00;99.90
9043;DHT22;4556;49.150;8.808;2022-11-21T08:59:47;7.10;99.90
9043;DHT22;4556;49.150;8.808;2022-11-21T09:02:14;8.60;99.90
9043;DHT22;4556;49.150;8.808;2022-11-21T09:04:41;7.80;99.90
9043;DHT22;4556;49.150;8.808;2022-11-21T09:07:08;7.10;99.90
9043;DHT22;4556;49.150;8.808;2022-11-21T09:09:35;7.20;99.90
9043;DHT22;4556;49.150;8.808;2022-11-21T09:12:02;7.30;99.90
9043;DHT22;4556;49.150;8.808;2022-11-21T09:14:31;7.30;99.90
9043;DHT22;4556;49.150;8.808;2022-11-21T09:17:15;7.30;99.90
9043;DHT22;4556;49.150;8.808;2022-11-21T09:20:00;7.30;99.90
9043;DHT22;4556;49.150;8.808;2022-11-21T09:22:26;7.40;99.90
9043;DHT22;4556;49.150;8.808;2022-11-21T09:24:53;7.30;99.90
9043;DHT22;4556;49.150;8.808;2022-11-21T09:27:20;7.30;99.90
9043;DHT22;4556;49.150;8.808;2022-11-21T09:29:49;7.50;99.90
9043;DHT22;4556;49.150;8.808;2022-11-21T09:32:16;9.60;99.90
9043;DHT22;4556;49.150;8.808;2022-11-21T09:34:43;7.70;99.90
9043;DHT22;4556;49.150;8.808;2022-11-21T09:37:10;7.50;99.90
9043;DHT22;4556;49.150;8.808;2022-11-21T09:39:36;7.50;99.90
9043;DHT22;4556;49.150;8.808;2022-11-21T09:42:29;7.40;99.90
9043;DHT22;4556;49.150;8.808;2022-11-21T09:45:05;7.50;99.90
9043;DHT22;4556;49.150;8.808;2022-11-21T09:47:34;7.40;99.90
9043;DHT22;4556;49.150;8.808;2022-11-21T09:50:04;7.40;99.90
9043;DHT22;4556;49.150;8.808;2022-11-21T09:52:37;7.40;99.90
9043;DHT22;4556;49.150;8.808;2022-11-21T09:55:16;9.70;99.90
9043;DHT22;4556;49.150;8.808;2022-11-21T09:57:46;7.50;99.90
9043;DHT22;4556;49.150;8.808;2022-11-21T10:00:19;7.60;99.90
9043;DHT22;4556;49.150;8.808;2022-11-21T10:02:47;7.70;99.90
9043;DHT22;4556;49.150;8.808;2022-11-21T10:05:14;7.70;99.90
9043;DHT22;4556;49.150;8.808;2022-11-21T10:07:43;7.90;99.90
9043;DHT22;4556;49.150;8.808;2022-11-21T10:10:27;7.70;99.90
9043;DHT22;4556;49.150;8.808;2022-11-21T10:13:05;7.70;99.90
9043;DHT22;4556;49.150;8.808;2022-11-21T10:15:47;7.90;99.90
9043;DHT22;4556;49.150;8.808;2022-11-21T10:18:34;7.80;99.90
9043;DHT22;4556;49.150;8.808;2022-11-21T10:21:14;7.90;99.90
9043;DHT22;4556;49.150;8.808;2022-11-21T10:24:04;8.00;99.90
9043;DHT22;4556;49.150;8.808;2022-11-21T10:26:40;8.00;99.90
9043;DHT22;4556;49.150;8.808;2022-11-21T10:29:13;7.90;99.90
9043;DHT22;4556;49.150;8.808;2022-11-21T10:31:44;8.00;99.90
9043;DHT22;4556;49.150;8.808;2022-11-21T10:34:17;8.40;99.90
9043;DHT22;4556;49.150;8.808;2022-11-21T10:36:51;8.20;99.90
9043;DHT22;4556;49.150;8.808;2022-11-21T10:39:26;8.20;99.90
9043;DHT22;4556;49.150;8.808;2022-11-21T10:42:00;9.00;99.90
9043;DHT22;4556;49.150;8.808;2022-11-21T10:44:32;8.30;99.90
9043;DHT22;4556;49.150;8.808;2022-11-21T10:47:22;8.10;99.90
9043;DHT22;4556;49.150;8.808;2022-11-21T10:50:05;8.10;99.90
9043;DHT22;4556;49.150;8.808;2022-11-21T10:52:43;8.10;99.90
9043;DHT22;4556;49.150;8.808;2022-11-21T10:55:16;8.20;99.90
9043;DHT22;4556;49.150;8.808;2022-11-21T10:57:45;8.30;99.90
9043;DHT22;4556;49.150;8.808;2022-11-21T11:00:21;8.30;99.90
9043;DHT22;4556;49.150;8.808;2022-11-21T11:03:02;8.30;99.90
9043;DHT22;4556;49.150;8.808;2022-11-21T11:05:31;8.40;99.90
9043;DHT22;4556;49.150;8.808;2022-11-21T11:08:03;8.40;99.90
9043;DHT22;4556;49.150;8.808;2022-11-21T11:10:32;8.50;99.90
9043;DHT22;4556;49.150;8.808;2022-11-21T11:12:59;8.60;99.90
9043;DHT22;4556;49.150;8.808;2022-11-21T11:16:00;8.70;99.90
9043;DHT22;4556;49.150;8.808;2022-11-21T11:18:30;8.80;99.90
9043;DHT22;4556;49.150;8.808;2022-11-21T11:21:13;8.80;99.90
9043;DHT22;4556;49.150;8.808;2022-11-21T11:23:41;8.90;99.90
9043;DHT22;4556;49.150;8.808;2022-11-21T11:26:20;8.80;99.90
9043;DHT22;4556;49.150;8.808;2022-11-21T11:28:47;8.80;99.90
9043;DHT22;4556;49.150;8.808;2022-11-21T11:31:14;8.80;99.90
9043;DHT22;4556;49.150;8.808;2022-11-21T11:33:49;8.90;99.90
9043;DHT22;4556;49.150;8.808;2022-11-21T11:36:25;11.50;99.90
9043;DHT22;4556;49.150;8.808;2022-11-21T11:38:56;9.00;99.90
9043;DHT22;4556;49.150;8.808;2022-11-21T11:44:51;9.10;99.90
9043;DHT22;4556;49.150;8.808;2022-11-21T11:47:47;9.20;99.90
9043;DHT22;4556;49.150;8.808;2022-11-21T11:50:22;9.10;99.90
9043;DHT22;4556;49.150;8.808;2022-11-21T11:52:55;9.20;99.90
9043;DHT22;4556;49.150;8.808;2022-11-21T11:55:28;9.20;99.90
9043;DHT22;4556;49.150;8.808;2022-11-21T11:58:00;9.30;99.90
9043;DHT22;4556;49.150;8.808;2022-11-21T12:00:33;9.30;99.90
9043;DHT22;4556;49.150;8.808;2022-11-21T12:03:05;9.30;99.90
9043;DHT22;4556;49.150;8.808;2022-11-21T12:05:45;9.20;99.90
9043;DHT22;4556;49.150;8.808;2022-11-21T12:08:20;8.90;99.90
9043;DHT22;4556;49.150;8.808;2022-11-21T12:10:54;10.30;99.90
9043;DHT22;4556;49.150;8.808;2022-11-21T12:13:40;9.00;99.90
9043;DHT22;4556;49.150;8.808;2022-11-21T12:16:11;9.10;99.90
9043;DHT22;4556;49.150;8.808;2022-11-21T12:18:46;9.20;99.90
9043;DHT22;4556;49.150;8.808;2022-11-21T12:21:17;9.20;99.90
9043;DHT22;4556;49.150;8.808;2022-11-21T12:23:48;9.80;99.90
9043;DHT22;4556;49.150;8.808;2022-11-21T12:26:26;9.70;99.90
9043;DHT22;4556;49.150;8.808;2022-11-21T12:29:19;9.80;99.90
9043;DHT22;4556;49.150;8.808;2022-11-21T12:32:00;8.80;99.90
9043;DHT22;4556;49.150;8.808;2022-11-21T12:34:52;8.70;99.90
9043;DHT22;4556;49.150;8.808;2022-11-21T12:37:31;8.60;99.90
9043;DHT22;4556;49.150;8.808;2022-11-21T12:40:08;10.20;99.90
9043;DHT22;4556;49.150;8.808;2022-11-21T12:42:45;8.40;99.90
9043;DHT22;4556;49.150;8.808;2022-11-21T12:45:30;9.70;99.90
9043;DHT22;4556;49.150;8.808;2022-11-21T12:48:15;8.50;99.90
9043;DHT22;4556;49.150;8.808;2022-11-21T12:54:39;8.80;99.90
9043;DHT22;4556;49.150;8.808;2022-11-21T12:57:09;9.00;99.90
9043;DHT22;4556;49.150;8.808;2022-11-21T12:59:48;9.30;99.90
9043;DHT22;4556;49.150;8.808;2022-11-21T13:02:27;9.50;99.90
9043;DHT22;4556;49.150;8.808;2022-11-21T13:04:57;9.30;99.90
9043;DHT22;4556;49.150;8.808;2022-11-21T13:07:27;9.50;99.90
9043;DHT22;4556;49.150;8.808;2022-11-21T13:09:58;9.40;99.90
9043;DHT22;4556;49.150;8.808;2022-11-21T13:12:34;10.00;99.90
9043;DHT22;4556;49.150;8.808;2022-11-21T13:15:13;11.20;99.90
9043;DHT22;4556;49.150;8.808;2022-11-21T13:17:46;9.40;99.90
9043;DHT22;4556;49.150;8.808;2022-11-21T13:20:21;9.40;99.90
9043;DHT22;4556;49.150;8.808;2022-11-21T13:22:58;9.40;99.90
9043;DHT22;4556;49.150;8.808;2022-11-21T13:25:43;9.50;99.90
9043;DHT22;4556;49.150;8.808;2022-11-21T13:28:35;9.60;99.90
9043;DHT22;4556;49.150;8.808;2022-11-21T13:31:25;9.60;99.90
9043;DHT22;4556;49.150;8.808;2022-11-21T13:33:52;9.80;99.90
9043;DHT22;4556;49.150;8.808;2022-11-21T13:36:36;9.80;99.90
9043;DHT22;4556;49.150;8.808;2022-11-21T13:39:35;9.90;99.90
9043;DHT22;4556;49.150;8.808;2022-11-21T13:42:08;9.90;99.90
9043;DHT22;4556;49.150;8.808;2022-11-21T13:44:53;9.80;99.90
9043;DHT22;4556;49.150;8.808;2022-11-21T13:50:33;9.60;99.90
9043;DHT22;4556;49.150;8.808;2022-11-21T13:53:09;9.50;99.90
9043;DHT22;4556;49.150;8.808;2022-11-21T13:55:47;9.50;99.90
9043;DHT22;4556;49.150;8.808;2022-11-21T13:58:32;10.30;99.90
9043;DHT22;4556;49.150;8.808;2022-11-21T14:01:13;9.30;99.90
9043;DHT22;4556;49.150;8.808;2022-11-21T14:06:51;9.20;99.90
9043;DHT22;4556;49.150;8.808;2022-11-21T14:09:30;9.20;99.90
9043;DHT22;4556;49.150;8.808;2022-11-21T14:12:00;9.10;99.90
9043;DHT22;4556;49.150;8.808;2022-11-21T14:14:33;9.00;99.90
9043;DHT22;4556;49.150;8.808;2022-11-21T14:17:19;8.90;99.90
9043;DHT22;4556;49.150;8.808;2022-11-21T14:19:49;10.60;99.90
9043;DHT22;4556;49.150;8.808;2022-11-21T14:22:25;9.20;99.90
9043;DHT22;4556;49.150;8.808;2022-11-21T14:24:56;8.40;99.90
9043;DHT22;4556;49.150;8.808;2022-11-21T14:27:27;8.30;99.90
9043;DHT22;4556;49.150;8.808;2022-11-21T14:29:57;8.20;99.90
9043;DHT22;4556;49.150;8.808;2022-11-21T14:32:26;8.10;99.90
9043;DHT22;4556;49.150;8.808;2022-11-21T14:35:06;8.10;99.90
9043;DHT22;4556;49.150;8.808;2022-11-21T14:37:34;8.40;99.90
9043;DHT22;4556;49.150;8.808;2022-11-21T14:40:03;8.30;99.90
9043;DHT22;4556;49.150;8.808;2022-11-21T14:42:34;8.30;99.90
9043;DHT22;4556;49.150;8.808;2022-11-21T14:45:12;8.10;99.90
9043;DHT22;4556;49.150;8.808;2022-11-21T14:47:45;8.00;99.90
9043;DHT22;4556;49.150;8.808;2022-11-21T14:50:24;7.90;99.90
9043;DHT22;4556;49.150;8.808;2022-11-21T14:52:52;7.80;99.90
9043;DHT22;4556;49.150;8.808;2022-11-21T14:55:25;7.60;99.90
9043;DHT22;4556;49.150;8.808;2022-11-21T14:57:53;7.50;99.90
9043;DHT22;4556;49.150;8.808;2022-11-21T15:00:23;8.90;99.90
9043;DHT22;4556;49.150;8.808;2022-11-21T15:02:53;5.20;99.90
9043;DHT22;4556;49.150;8.808;2022-11-21T15:05:22;7.40;99.90
9043;DHT22;4556;49.150;8.808;2022-11-21T15:07:54;7.50;99.90
9043;DHT22;4556;49.150;8.808;2022-11-21T15:10:23;7.50;99.90
9043;DHT22;4556;49.150;8.808;2022-11-21T15:12:55;7.30;99.90
9043;DHT22;4556;49.150;8.808;2022-11-21T15:15:28;8.30;99.90
9043;DHT22;4556;49.150;8.808;2022-11-21T15:17:58;7.10;99.90
9043;DHT22;4556;49.150;8.808;2022-11-21T15:20:27;7.30;99.90
9043;DHT22;4556;49.150;8.808;2022-11-21T15:22:55;8.60;99.90
9043;DHT22;4556;49.150;8.808;2022-11-21T15:25:24;8.40;99.90
9043;DHT22;4556;49.150;8.808;2022-11-21T15:28:05;7.00;99.90
9043;DHT22;4556;49.150;8.808;2022-11-21T15:30:35;7.50;99.90
9043;DHT22;4556;49.150;8.808;2022-11-21T15:33:07;6.70;99.90
9043;DHT22;4556;49.150;8.808;2022-11-21T15:35:46;6.70;99.90
9043;DHT22;4556;49.150;8.808;2022-11-21T15:38:25;6.60;99.90
9043;DHT22;4556;49.150;8.808;2022-11-21T15:41:00;6.70;99.90
9043;DHT22;4556;49.150;8.808;2022-11-21T15:43:42;6.80;99.90
9043;DHT22;4556;49.150;8.808;2022-11-21T15:46:16;6.60;99.90
9043;DHT22;4556;49.150;8.808;2022-11-21T15:48:44;8.00;99.90
9043;DHT22;4556;49.150;8.808;2022-11-21T15:51:12;7.40;99.90
9043;DHT22;4556;49.150;8.808;2022-11-21T15:53:39;6.50;99.90
9043;DHT22;4556;49.150;8.808;2022-11-21T15:56:09;6.60;99.90
9043;DHT22;4556;49.150;8.808;2022-11-21T15:58:36;6.80;99.90
9043;DHT22;4556;49.150;8.808;2022-11-21T16:01:03;6.60;99.90
9043;DHT22;4556;49.150;8.808;2022-11-21T16:03:32;6.60;99.90
9043;DHT22;4556;49.150;8.808;2022-11-21T16:05:59;7.60;99.90
9043;DHT22;4556;49.150;8.808;2022-11-21T16:08:26;6.50;99.90
9043;DHT22;4556;49.150;8.808;2022-11-21T16:10:53;6.30;99.90
9043;DHT22;4556;49.150;8.808;2022-11-21T16:13:20;6.10;99.90
9043;DHT22;4556;49.150;8.808;2022-11-21T16:15:47;6.80;99.90
9043;DHT22;4556;49.150;8.808;2022-11-21T16:18:14;5.90;99.90
9043;DHT22;4556;49.150;8.808;2022-11-21T16:20:42;8.30;99.90
9043;DHT22;4556;49.150;8.808;2022-11-21T16:23:10;7.30;99.90
9043;DHT22;4556;49.150;8.808;2022-11-21T16:25:37;5.70;99.90
9043;DHT22;4556;49.150;8.808;2022-11-21T16:28:04;6.40;99.90
9043;DHT22;4556;49.150;8.808;2022-11-21T16:30:30;5.50;99.90
9043;DHT22;4556;49.150;8.808;2022-11-21T16:33:00;6.90;99.90
9043;DHT22;4556;49.150;8.808;2022-11-21T16:35:27;5.60;99.90
9043;DHT22;4556;49.150;8.808;2022-11-21T16:37:55;5.40;99.90
9043;DHT22;4556;49.150;8.808;2022-11-21T16:40:23;7.10;99.90
9043;DHT22;4556;49.150;8.808;2022-11-21T16:42:49;7.20;99.90
9043;DHT22;4556;49.150;8.808;2022-11-21T16:45:16;5.30;99.90
9043;DHT22;4556;49.150;8.808;2022-11-21T16:47:43;7.50;99.90
9043;DHT22;4556;49.150;8.808;2022-11-21T16:50:10;5.30;99.90
9043;DHT22;4556;49.150;8.808;2022-11-21T16:52:37;5.20;99.90